sensor_id;sensor_type;location;lat;lon;timestamp;pressure;altitude;pressure_sealevel;temperature;humidity
27805;BME280;15183;51.350;11.102;2022-08-19T00:01:56;99570.00;;;24.93;57.59
27805;BME280;15183;51.350;11.102;2022-08-19T00:04:30;99570.78;;;24.93;57.31
27805;BME280;15183;51.350;11.102;2022-08-19T00:06:58;99544.28;;;24.78;57.44
27805;BME280;15183;51.350;11.102;2022-08-19T00:09:25;99563.31;;;24.90;57.48
27805;BME280;15183;51.350;11.102;2022-08-19T00:11:54;99561.75;;;24.89;57.69
27805;BME280;15183;51.350;11.102;2022-08-19T00:14:23;99566.03;;;24.90;57.53
27805;BME280;15183;51.350;11.102;2022-08-19T00:16:50;99563.47;;;24.94;57.13
27805;BME280;15183;51.350;11.102;2022-08-19T00:19:21;99569.22;;;24.92;57.27
27805;BME280;15183;51.350;11.102;2022-08-19T00:21:48;99566.97;;;24.94;57.30
27805;BME280;15183;51.350;11.102;2022-08-19T00:24:15;99561.06;;;24.92;56.92
27805;BME280;15183;51.350;11.102;2022-08-19T00:26:44;99563.00;;;24.92;57.22
27805;BME280;15183;51.350;11.102;2022-08-19T00:29:17;99564.25;;;24.94;57.35
27805;BME280;15183;51.350;11.102;2022-08-19T00:31:46;99555.34;;;24.94;57.13
27805;BME280;15183;51.350;11.102;2022-08-19T00:34:14;99561.88;;;24.93;57.61
27805;BME280;15183;51.350;11.102;2022-08-19T00:36:42;99561.44;;;24.91;57.08
27805;BME280;15183;51.350;11.102;2022-08-19T00:39:09;99559.38;;;24.88;57.78
27805;BME280;15183;51.350;11.102;2022-08-19T00:41:37;99549.72;;;24.78;57.36
27805;BME280;15183;51.350;11.102;2022-08-19T00:44:16;99545.22;;;24.73;57.59
27805;BME280;15183;51.350;11.102;2022-08-19T00:46:46;99552.59;;;24.73;57.78
27805;BME280;15183;51.350;11.102;2022-08-19T00:52:08;99552.63;;;24.64;59.14
27805;BME280;15183;51.350;11.102;2022-08-19T00:54:38;99530.28;;;24.37;59.28
27805;BME280;15183;51.350;11.102;2022-08-19T00:57:13;99550.38;;;24.36;59.84
27805;BME280;15183;51.350;11.102;2022-08-19T00:59:44;99554.94;;;24.14;60.49
27805;BME280;15183;51.350;11.102;2022-08-19T01:02:12;99527.75;;;23.93;61.10
27805;BME280;15183;51.350;11.102;2022-08-19T01:04:41;99511.59;;;23.58;62.38
27805;BME280;15183;51.350;11.102;2022-08-19T01:07:13;99479.19;;;23.13;62.76
27805;BME280;15183;51.350;11.102;2022-08-19T01:09:40;99516.56;;;23.29;63.28
27805;BME280;15183;51.350;11.102;2022-08-19T01:12:07;99531.34;;;23.32;64.19
27805;BME280;15183;51.350;11.102;2022-08-19T01:14:35;99525.75;;;23.19;64.43
27805;BME280;15183;51.350;11.102;2022-08-19T01:17:02;99517.97;;;23.09;64.72
27805;BME280;15183;51.350;11.102;2022-08-19T01:19:39;99518.91;;;22.95;64.63
27805;BME280;15183;51.350;11.102;2022-08-19T01:22:59;99520.34;;;22.84;64.93
27805;BME280;15183;51.350;11.102;2022-08-19T01:25:41;99520.50;;;22.79;65.83
27805;BME280;15183;51.350;11.102;2022-08-19T01:28:25;99508.22;;;22.73;66.06
27805;BME280;15183;51.350;11.102;2022-08-19T01:30:53;99508.56;;;22.71;65.94
27805;BME280;15183;51.350;11.102;2022-08-19T01:33:20;99514.75;;;22.72;66.92
27805;BME280;15183;51.350;11.102;2022-08-19T01:35:47;99512.19;;;22.66;67.30
27805;BME280;15183;51.350;11.102;2022-08-19T01:38:26;99504.09;;;22.58;67.13
27805;BME280;15183;51.350;11.102;2022-08-19T01:40:57;99510.91;;;22.55;67.62
27805;BME280;15183;51.350;11.102;2022-08-19T01:43:24;99501.38;;;22.49;68.12
27805;BME280;15183;51.350;11.102;2022-08-19T01:45:52;99456.63;;;22.07;67.60
27805;BME280;15183;51.350;11.102;2022-08-19T01:48:19;99508.44;;;22.36;68.08
27805;BME280;15183;51.350;11.102;2022-08-19T01:50:45;99480.59;;;22.18;68.20
27805;BME280;15183;51.350;11.102;2022-08-19T01:53:14;99496.06;;;22.35;68.44
27805;BME280;15183;51.350;11.102;2022-08-19T01:55:42;99488.78;;;22.35;68.64
27805;BME280;15183;51.350;11.102;2022-08-19T01:58:19;99492.53;;;22.25;68.47
27805;BME280;15183;51.350;11.102;2022-08-19T02:00:47;99492.69;;;22.29;68.62
27805;BME280;15183;51.350;11.102;2022-08-19T02:03:15;99467.88;;;22.09;69.33
27805;BME280;15183;51.350;11.102;2022-08-19T02:05:42;99484.25;;;22.22;69.46
27805;BME280;15183;51.350;11.102;2022-08-19T02:08:10;99483.13;;;22.14;69.67
27805;BME280;15183;51.350;11.102;2022-08-19T02:10:43;99459.28;;;21.98;69.40
27805;BME280;15183;51.350;11.102;2022-08-19T02:13:12;99490.56;;;22.08;70.00
27805;BME280;15183;51.350;11.102;2022-08-19T02:15:39;99470.88;;;21.99;70.29
27805;BME280;15183;51.350;11.102;2022-08-19T02:18:06;99466.06;;;21.87;70.56
27805;BME280;15183;51.350;11.102;2022-08-19T02:20:35;99465.59;;;21.94;70.78
27805;BME280;15183;51.350;11.102;2022-08-19T02:23:01;99461.09;;;21.80;70.82
27805;BME280;15183;51.350;11.102;2022-08-19T02:25:28;99482.72;;;21.89;71.27
27805;BME280;15183;51.350;11.102;2022-08-19T02:27:54;99469.66;;;21.82;71.57
27805;BME280;15183;51.350;11.102;2022-08-19T02:30:21;99481.44;;;21.87;71.64
27805;BME280;15183;51.350;11.102;2022-08-19T02:32:48;99473.66;;;21.85;71.69
27805;BME280;15183;51.350;11.102;2022-08-19T02:35:15;99463.16;;;21.83;71.98
27805;BME280;15183;51.350;11.102;2022-08-19T02:37:42;99469.66;;;21.82;72.29
27805;BME280;15183;51.350;11.102;2022-08-19T02:40:29;99476.97;;;21.82;72.48
27805;BME280;15183;51.350;11.102;2022-08-19T02:42:56;99466.50;;;21.80;72.59
27805;BME280;15183;51.350;11.102;2022-08-19T02:45:25;99467.94;;;21.87;73.03
27805;BME280;15183;51.350;11.102;2022-08-19T02:47:51;99462.72;;;21.90;72.61
27805;BME280;15183;51.350;11.102;2022-08-19T02:50:20;99447.81;;;21.93;72.99
27805;BME280;15183;51.350;11.102;2022-08-19T02:52:46;99441.94;;;21.91;73.60
27805;BME280;15183;51.350;11.102;2022-08-19T02:55:15;99418.38;;;21.74;73.46
27805;BME280;15183;51.350;11.102;2022-08-19T02:57:42;99441.94;;;21.91;73.38
27805;BME280;15183;51.350;11.102;2022-08-19T03:00:10;99449.28;;;21.99;73.53
27805;BME280;15183;51.350;11.102;2022-08-19T03:02:40;99452.47;;;22.01;73.56
27805;BME280;15183;51.350;11.102;2022-08-19T03:05:09;99459.94;;;22.04;73.51
27805;BME280;15183;51.350;11.102;2022-08-19T03:07:37;99454.84;;;22.03;73.92
27805;BME280;15183;51.350;11.102;2022-08-19T03:10:06;99460.72;;;22.05;73.65
27805;BME280;15183;51.350;11.102;2022-08-19T03:12:37;99464.22;;;22.05;73.69
27805;BME280;15183;51.350;11.102;2022-08-19T03:15:06;99475.34;;;22.12;74.21
27805;BME280;15183;51.350;11.102;2022-08-19T03:17:35;99453.22;;;21.93;73.87
27805;BME280;15183;51.350;11.102;2022-08-19T03:20:02;99469.97;;;22.12;74.19
27805;BME280;15183;51.350;11.102;2022-08-19T03:22:29;99469.47;;;22.10;73.94
27805;BME280;15183;51.350;11.102;2022-08-19T03:24:58;99471.88;;;22.21;74.36
27805;BME280;15183;51.350;11.102;2022-08-19T03:27:28;99465.34;;;22.04;74.25
27805;BME280;15183;51.350;11.102;2022-08-19T03:29:56;99478.56;;;22.23;74.40
27805;BME280;15183;51.350;11.102;2022-08-19T03:32:22;99465.22;;;22.18;74.59
27805;BME280;15183;51.350;11.102;2022-08-19T03:34:49;99477.47;;;22.24;74.27
27805;BME280;15183;51.350;11.102;2022-08-19T03:37:16;99466.00;;;22.19;74.71
27805;BME280;15183;51.350;11.102;2022-08-19T03:39:43;99485.56;;;22.24;74.28
27805;BME280;15183;51.350;11.102;2022-08-19T03:42:10;99491.75;;;22.25;74.31
27805;BME280;15183;51.350;11.102;2022-08-19T03:44:37;99499.88;;;22.34;74.51
27805;BME280;15183;51.350;11.102;2022-08-19T03:47:04;99505.44;;;22.37;75.03
27805;BME280;15183;51.350;11.102;2022-08-19T03:49:32;99503.84;;;22.36;74.32
27805;BME280;15183;51.350;11.102;2022-08-19T03:52:01;99516.56;;;22.45;74.94
27805;BME280;15183;51.350;11.102;2022-08-19T03:54:28;99515.16;;;22.47;75.11
27805;BME280;15183;51.350;11.102;2022-08-19T03:56:57;99500.38;;;22.45;74.91
27805;BME280;15183;51.350;11.102;2022-08-19T03:59:33;99487.50;;;22.41;74.75
27805;BME280;15183;51.350;11.102;2022-08-19T04:02:05;99519.31;;;22.53;75.05
27805;BME280;15183;51.350;11.102;2022-08-19T04:04:37;99522.19;;;22.57;74.60
27805;BME280;15183;51.350;11.102;2022-08-19T04:07:05;99512.03;;;22.54;74.80
27805;BME280;15183;51.350;11.102;2022-08-19T04:09:34;99514.56;;;22.59;74.62
27805;BME280;15183;51.350;11.102;2022-08-19T04:12:03;99523.97;;;22.62;74.42
27805;BME280;15183;51.350;11.102;2022-08-19T04:14:31;99520.16;;;22.63;74.93
27805;BME280;15183;51.350;11.102;2022-08-19T04:17:00;99528.56;;;22.61;74.71
27805;BME280;15183;51.350;11.102;2022-08-19T04:19:28;99533.81;;;22.66;74.48
27805;BME280;15183;51.350;11.102;2022-08-19T04:21:55;99534.63;;;22.67;75.03
27805;BME280;15183;51.350;11.102;2022-08-19T04:24:22;99539.06;;;22.72;74.73
27805;BME280;15183;51.350;11.102;2022-08-19T04:26:49;99536.97;;;22.68;75.05
27805;BME280;15183;51.350;11.102;2022-08-19T04:29:20;99537.94;;;22.73;74.74
27805;BME280;15183;51.350;11.102;2022-08-19T04:31:48;99542.25;;;22.74;74.71
27805;BME280;15183;51.350;11.102;2022-08-19T04:34:18;99545.44;;;22.76;75.29
27805;BME280;15183;51.350;11.102;2022-08-19T04:36:48;99538.59;;;22.78;75.22
27805;BME280;15183;51.350;11.102;2022-08-19T04:39:24;99539.88;;;22.81;75.12
27805;BME280;15183;51.350;11.102;2022-08-19T04:42:12;99527.66;;;22.75;74.86
27805;BME280;15183;51.350;11.102;2022-08-19T04:44:58;99534.63;;;22.76;75.05
27805;BME280;15183;51.350;11.102;2022-08-19T04:47:24;99539.88;;;22.81;75.13
27805;BME280;15183;51.350;11.102;2022-08-19T04:49:51;99558.66;;;22.95;74.87
27805;BME280;15183;51.350;11.102;2022-08-19T04:52:17;99546.25;;;22.94;75.18
27805;BME280;15183;51.350;11.102;2022-08-19T04:54:44;99544.34;;;22.94;75.10
27805;BME280;15183;51.350;11.102;2022-08-19T04:57:10;99552.94;;;23.05;75.31
27805;BME280;15183;51.350;11.102;2022-08-19T04:59:38;99560.91;;;23.10;75.13
27805;BME280;15183;51.350;11.102;2022-08-19T05:02:07;99548.00;;;23.07;75.13
27805;BME280;15183;51.350;11.102;2022-08-19T05:04:34;99554.53;;;23.15;75.26
27805;BME280;15183;51.350;11.102;2022-08-19T05:07:01;99549.13;;;23.15;74.91
27805;BME280;15183;51.350;11.102;2022-08-19T05:09:29;99553.09;;;23.18;74.90
27805;BME280;15183;51.350;11.102;2022-08-19T05:11:55;99545.97;;;23.13;75.39
27805;BME280;15183;51.350;11.102;2022-08-19T05:14:22;99562.31;;;23.17;75.35
27805;BME280;15183;51.350;11.102;2022-08-19T05:16:49;99566.63;;;23.18;75.27
27805;BME280;15183;51.350;11.102;2022-08-19T05:19:15;99572.19;;;23.21;75.13
27805;BME280;15183;51.350;11.102;2022-08-19T05:22:01;99550.41;;;23.18;75.07
27805;BME280;15183;51.350;11.102;2022-08-19T05:24:46;99558.69;;;23.21;75.43
27805;BME280;15183;51.350;11.102;2022-08-19T05:27:12;99556.63;;;23.18;75.56
27805;BME280;15183;51.350;11.102;2022-08-19T05:29:39;99555.63;;;23.23;75.07
27805;BME280;15183;51.350;11.102;2022-08-19T05:32:06;99572.53;;;23.29;75.79
27805;BME280;15183;51.350;11.102;2022-08-19T05:34:37;99572.72;;;23.32;75.45
27805;BME280;15183;51.350;11.102;2022-08-19T05:37:05;99580.19;;;23.35;75.43
27805;BME280;15183;51.350;11.102;2022-08-19T05:39:36;99559.94;;;23.24;75.12
27805;BME280;15183;51.350;11.102;2022-08-19T05:42:07;99573.50;;;23.41;74.83
27805;BME280;15183;51.350;11.102;2022-08-19T05:44:37;99571.28;;;23.44;75.37
27805;BME280;15183;51.350;11.102;2022-08-19T05:47:06;99564.59;;;23.32;74.90
27805;BME280;15183;51.350;11.102;2022-08-19T05:49:35;99577.16;;;23.37;75.21
27805;BME280;15183;51.350;11.102;2022-08-19T05:52:09;99585.09;;;23.42;74.89
27805;BME280;15183;51.350;11.102;2022-08-19T05:54:38;99587.66;;;23.38;75.37
27805;BME280;15183;51.350;11.102;2022-08-19T05:57:08;99583.84;;;23.39;75.19
27805;BME280;15183;51.350;11.102;2022-08-19T05:59:34;99585.44;;;23.40;75.16
27805;BME280;15183;51.350;11.102;2022-08-19T06:02:05;99588.91;;;23.41;75.17
27805;BME280;15183;51.350;11.102;2022-08-19T06:04:33;99589.72;;;23.41;75.40
27805;BME280;15183;51.350;11.102;2022-08-19T06:06:59;99566.81;;;23.30;74.86
27805;BME280;15183;51.350;11.102;2022-08-19T06:09:27;99583.53;;;23.32;74.75
27805;BME280;15183;51.350;11.102;2022-08-19T06:11:57;99586.97;;;23.24;74.76
27805;BME280;15183;51.350;11.102;2022-08-19T06:14:32;99593.81;;;23.12;74.77
27805;BME280;15183;51.350;11.102;2022-08-19T06:17:01;99584.88;;;22.94;75.21
27805;BME280;15183;51.350;11.102;2022-08-19T06:19:29;99575.75;;;22.73;75.62
27805;BME280;15183;51.350;11.102;2022-08-19T06:21:58;99587.81;;;22.58;76.00
27805;BME280;15183;51.350;11.102;2022-08-19T06:24:27;99603.69;;;22.59;76.27
27805;BME280;15183;51.350;11.102;2022-08-19T06:26:56;99603.97;;;22.49;76.59
27805;BME280;15183;51.350;11.102;2022-08-19T06:29:25;99611.22;;;22.39;76.17
27805;BME280;15183;51.350;11.102;2022-08-19T06:31:57;99610.06;;;22.32;76.65
27805;BME280;15183;51.350;11.102;2022-08-19T06:34:26;99607.94;;;22.20;76.67
27805;BME280;15183;51.350;11.102;2022-08-19T06:36:55;99609.16;;;22.14;76.51
27805;BME280;15183;51.350;11.102;2022-08-19T06:39:27;99627.25;;;22.13;77.11
27805;BME280;15183;51.350;11.102;2022-08-19T06:41:58;99629.78;;;22.09;77.49
27805;BME280;15183;51.350;11.102;2022-08-19T06:44:29;99643.28;;;22.09;77.24
27805;BME280;15183;51.350;11.102;2022-08-19T06:47:07;99628.81;;;22.05;77.27
27805;BME280;15183;51.350;11.102;2022-08-19T06:49:36;99646.94;;;22.14;77.41
27805;BME280;15183;51.350;11.102;2022-08-19T06:52:04;99646.94;;;22.14;77.64
27805;BME280;15183;51.350;11.102;2022-08-19T06:54:31;99658.41;;;22.19;77.73
27805;BME280;15183;51.350;11.102;2022-08-19T06:57:01;99653.81;;;22.20;77.70
27805;BME280;15183;51.350;11.102;2022-08-19T06:59:29;99643.50;;;22.22;77.42
27805;BME280;15183;51.350;11.102;2022-08-19T07:01:58;99655.63;;;22.33;77.96
27805;BME280;15183;51.350;11.102;2022-08-19T07:04:28;99657.75;;;22.45;77.21
27805;BME280;15183;51.350;11.102;2022-08-19T07:07:09;99663.72;;;22.56;77.54
27805;BME280;15183;51.350;11.102;2022-08-19T07:09:40;99649.91;;;22.58;77.44
27805;BME280;15183;51.350;11.102;2022-08-19T07:12:11;99651.09;;;22.74;77.61
27805;BME280;15183;51.350;11.102;2022-08-19T07:14:38;99666.09;;;22.98;77.02
27805;BME280;15183;51.350;11.102;2022-08-19T07:17:10;99670.09;;;23.09;76.90
27805;BME280;15183;51.350;11.102;2022-08-19T07:19:38;99657.88;;;23.12;76.97
27805;BME280;15183;51.350;11.102;2022-08-19T07:22:07;99666.69;;;23.26;76.69
27805;BME280;15183;51.350;11.102;2022-08-19T07:24:34;99670.81;;;23.33;76.96
27805;BME280;15183;51.350;11.102;2022-08-19T07:27:04;99684.84;;;23.44;76.43
27805;BME280;15183;51.350;11.102;2022-08-19T07:29:34;99684.84;;;23.52;76.75
27805;BME280;15183;51.350;11.102;2022-08-19T07:32:03;99695.19;;;23.68;76.36
27805;BME280;15183;51.350;11.102;2022-08-19T07:34:31;99691.88;;;23.80;76.42
27805;BME280;15183;51.350;11.102;2022-08-19T07:37:00;99692.81;;;23.93;76.19
27805;BME280;15183;51.350;11.102;2022-08-19T07:39:30;99692.81;;;24.02;76.41
27805;BME280;15183;51.350;11.102;2022-08-19T07:42:00;99695.88;;;24.09;75.74
27805;BME280;15183;51.350;11.102;2022-08-19T07:44:27;99699.81;;;24.11;76.13
27805;BME280;15183;51.350;11.102;2022-08-19T07:46:56;99696.97;;;24.08;76.07
27805;BME280;15183;51.350;11.102;2022-08-19T07:49:23;99701.59;;;24.07;76.07
27805;BME280;15183;51.350;11.102;2022-08-19T07:52:00;99692.53;;;24.03;75.09
27805;BME280;15183;51.350;11.102;2022-08-19T07:54:32;99703.47;;;23.98;75.61
27805;BME280;15183;51.350;11.102;2022-08-19T07:57:01;99695.34;;;23.89;75.66
27805;BME280;15183;51.350;11.102;2022-08-19T07:59:28;99707.13;;;23.93;75.71
27805;BME280;15183;51.350;11.102;2022-08-19T08:01:56;99703.94;;;23.91;75.11
27805;BME280;15183;51.350;11.102;2022-08-19T08:04:22;99700.13;;;23.83;75.01
27805;BME280;15183;51.350;11.102;2022-08-19T08:07:08;99707.78;;;23.90;74.88
27805;BME280;15183;51.350;11.102;2022-08-19T08:09:53;99706.66;;;23.82;74.52
27805;BME280;15183;51.350;11.102;2022-08-19T08:12:24;99713.50;;;23.80;74.58
27805;BME280;15183;51.350;11.102;2022-08-19T08:14:58;99706.19;;;23.72;73.96
27805;BME280;15183;51.350;11.102;2022-08-19T08:17:29;99704.72;;;23.65;73.96
27805;BME280;15183;51.350;11.102;2022-08-19T08:19:56;99721.59;;;23.62;74.25
27805;BME280;15183;51.350;11.102;2022-08-19T08:22:24;99706.50;;;23.52;73.86
27805;BME280;15183;51.350;11.102;2022-08-19T08:25:15;99718.72;;;23.50;74.10
27805;BME280;15183;51.350;11.102;2022-08-19T08:27:44;99735.75;;;23.50;74.01
27805;BME280;15183;51.350;11.102;2022-08-19T08:30:19;99731.44;;;23.40;73.53
27805;BME280;15183;51.350;11.102;2022-08-19T08:32:46;99729.03;;;23.39;73.59
27805;BME280;15183;51.350;11.102;2022-08-19T08:35:16;99740.81;;;23.43;73.48
27805;BME280;15183;51.350;11.102;2022-08-19T08:37:45;99740.50;;;23.45;73.64
27805;BME280;15183;51.350;11.102;2022-08-19T08:40:46;99748.94;;;23.43;73.29
27805;BME280;15183;51.350;11.102;2022-08-19T08:43:29;99750.53;;;23.35;73.13
27805;BME280;15183;51.350;11.102;2022-08-19T08:51:53;99755.53;;;22.56;74.60
27805;BME280;15183;51.350;11.102;2022-08-19T08:54:33;99775.91;;;22.62;75.60
27805;BME280;15183;51.350;11.102;2022-08-19T08:57:05;99770.13;;;22.55;75.73
27805;BME280;15183;51.350;11.102;2022-08-19T08:59:36;99777.00;;;22.61;76.09
27805;BME280;15183;51.350;11.102;2022-08-19T09:02:05;99776.38;;;22.64;75.75
27805;BME280;15183;51.350;11.102;2022-08-19T09:04:31;99778.91;;;22.61;75.51
27805;BME280;15183;51.350;11.102;2022-08-19T09:07:23;99792.91;;;22.63;75.01
27805;BME280;15183;51.350;11.102;2022-08-19T09:10:22;99795.59;;;22.63;75.55
27805;BME280;15183;51.350;11.102;2022-08-19T09:13:24;99791.47;;;22.65;75.74
27805;BME280;15183;51.350;11.102;2022-08-19T09:16:00;99796.25;;;22.68;75.96
27805;BME280;15183;51.350;11.102;2022-08-19T09:21:15;99805.41;;;22.81;75.90
27805;BME280;15183;51.350;11.102;2022-08-19T09:23:41;99809.06;;;22.86;76.22
27805;BME280;15183;51.350;11.102;2022-08-19T09:26:21;99806.22;;;22.82;75.60
27805;BME280;15183;51.350;11.102;2022-08-19T09:28:51;99809.03;;;22.77;75.87
27805;BME280;15183;51.350;11.102;2022-08-19T09:31:23;99814.75;;;22.75;75.98
27805;BME280;15183;51.350;11.102;2022-08-19T09:33:50;99812.47;;;22.68;76.12
27805;BME280;15183;51.350;11.102;2022-08-19T09:36:20;99829.16;;;22.70;76.63
27805;BME280;15183;51.350;11.102;2022-08-19T09:38:48;99825.56;;;22.75;76.23
27805;BME280;15183;51.350;11.102;2022-08-19T09:41:21;99823.16;;;22.74;76.46
27805;BME280;15183;51.350;11.102;2022-08-19T09:43:51;99824.81;;;22.83;76.03
27805;BME280;15183;51.350;11.102;2022-08-19T09:46:19;99796.75;;;22.70;76.21
27805;BME280;15183;51.350;11.102;2022-08-19T09:48:48;99818.34;;;22.93;76.70
27805;BME280;15183;51.350;11.102;2022-08-19T09:51:23;99808.50;;;22.97;76.43
27805;BME280;15183;51.350;11.102;2022-08-19T09:53:51;99804.56;;;23.04;76.47
27805;BME280;15183;51.350;11.102;2022-08-19T09:56:21;99799.78;;;23.01;75.61
27805;BME280;15183;51.350;11.102;2022-08-19T09:58:48;99788.75;;;22.88;75.04
27805;BME280;15183;51.350;11.102;2022-08-19T10:01:23;99791.59;;;22.83;75.74
27805;BME280;15183;51.350;11.102;2022-08-19T10:03:52;99787.91;;;22.79;75.33
27805;BME280;15183;51.350;11.102;2022-08-19T10:06:22;99782.13;;;22.72;75.36
27805;BME280;15183;51.350;11.102;2022-08-19T10:08:49;99785.47;;;22.68;74.80
27805;BME280;15183;51.350;11.102;2022-08-19T10:11:19;99777.00;;;22.61;74.71
27805;BME280;15183;51.350;11.102;2022-08-19T10:13:48;99782.09;;;22.63;74.84
27805;BME280;15183;51.350;11.102;2022-08-19T10:16:22;99777.53;;;22.72;74.61
27805;BME280;15183;51.350;11.102;2022-08-19T10:18:50;99772.00;;;22.77;74.57
27805;BME280;15183;51.350;11.102;2022-08-19T10:21:23;99782.59;;;22.96;74.06
27805;BME280;15183;51.350;11.102;2022-08-19T10:23:54;99774.34;;;23.02;73.59
27805;BME280;15183;51.350;11.102;2022-08-19T10:26:32;99791.44;;;23.11;72.84
27805;BME280;15183;51.350;11.102;2022-08-19T10:28:59;99788.41;;;23.12;72.98
27805;BME280;15183;51.350;11.102;2022-08-19T10:31:29;99780.47;;;23.16;72.21
27805;BME280;15183;51.350;11.102;2022-08-19T10:33:58;99777.16;;;23.19;71.76
27805;BME280;15183;51.350;11.102;2022-08-19T10:36:32;99761.09;;;23.23;71.32
27805;BME280;15183;51.350;11.102;2022-08-19T10:39:07;99722.84;;;22.98;71.32
27805;BME280;15183;51.350;11.102;2022-08-19T10:41:37;99769.31;;;23.49;70.74
27805;BME280;15183;51.350;11.102;2022-08-19T10:44:08;99750.41;;;23.58;70.47
27805;BME280;15183;51.350;11.102;2022-08-19T10:46:39;99762.66;;;23.73;70.03
27805;BME280;15183;51.350;11.102;2022-08-19T10:49:09;99763.03;;;23.98;69.49
27805;BME280;15183;51.350;11.102;2022-08-19T10:51:39;99751.13;;;24.08;69.74
27805;BME280;15183;51.350;11.102;2022-08-19T10:54:26;99776.88;;;24.49;69.33
27805;BME280;15183;51.350;11.102;2022-08-19T10:57:13;99748.31;;;24.69;68.76
27805;BME280;15183;51.350;11.102;2022-08-19T10:59:40;99691.09;;;24.62;68.75
27805;BME280;15183;51.350;11.102;2022-08-19T11:02:10;99730.84;;;25.06;67.07
27805;BME280;15183;51.350;11.102;2022-08-19T11:04:41;99759.41;;;25.33;67.04
27805;BME280;15183;51.350;11.102;2022-08-19T11:07:10;99683.56;;;24.85;67.00
27805;BME280;15183;51.350;11.102;2022-08-19T11:09:41;99707.84;;;25.12;66.92
27805;BME280;15183;51.350;11.102;2022-08-19T11:12:09;99754.19;;;25.58;65.88
27805;BME280;15183;51.350;11.102;2022-08-19T11:14:37;99759.34;;;25.72;66.68
27805;BME280;15183;51.350;11.102;2022-08-19T11:17:08;99750.44;;;25.93;66.45
27805;BME280;15183;51.350;11.102;2022-08-19T11:19:37;99752.31;;;26.13;65.95
27805;BME280;15183;51.350;11.102;2022-08-19T11:22:03;99753.25;;;26.39;65.83
27805;BME280;15183;51.350;11.102;2022-08-19T11:24:31;99709.19;;;26.33;64.61
27805;BME280;15183;51.350;11.102;2022-08-19T11:27:07;99705.63;;;26.54;64.66
27805;BME280;15183;51.350;11.102;2022-08-19T11:29:39;99744.00;;;26.98;63.07
27805;BME280;15183;51.350;11.102;2022-08-19T11:32:09;99750.56;;;27.22;62.30
27805;BME280;15183;51.350;11.102;2022-08-19T11:34:37;99756.78;;;27.35;62.34
27805;BME280;15183;51.350;11.102;2022-08-19T11:37:04;99748.97;;;27.46;61.29
27805;BME280;15183;51.350;11.102;2022-08-19T11:39:35;99698.56;;;27.11;61.89
27805;BME280;15183;51.350;11.102;2022-08-19T11:42:05;99717.66;;;27.27;62.18
27805;BME280;15183;51.350;11.102;2022-08-19T11:44:53;99745.91;;;27.60;61.39
27805;BME280;15183;51.350;11.102;2022-08-19T11:47:19;99767.19;;;27.70;61.83
27805;BME280;15183;51.350;11.102;2022-08-19T11:49:47;99748.72;;;27.64;61.54
27805;BME280;15183;51.350;11.102;2022-08-19T11:52:14;99761.97;;;27.78;61.56
27805;BME280;15183;51.350;11.102;2022-08-19T11:54:40;99768.41;;;27.85;60.55
27805;BME280;15183;51.350;11.102;2022-08-19T11:57:06;99750.94;;;27.86;60.44
27805;BME280;15183;51.350;11.102;2022-08-19T11:59:33;99752.63;;;27.91;59.55
27805;BME280;15183;51.350;11.102;2022-08-19T12:01:59;99759.06;;;27.99;59.06
27805;BME280;15183;51.350;11.102;2022-08-19T12:04:26;99753.16;;;27.97;58.93
27805;BME280;15183;51.350;11.102;2022-08-19T12:06:59;99745.69;;;27.94;58.53
27805;BME280;15183;51.350;11.102;2022-08-19T12:09:25;99697.00;;;27.64;58.26
27805;BME280;15183;51.350;11.102;2022-08-19T12:11:52;99687.28;;;27.50;58.26
27805;BME280;15183;51.350;11.102;2022-08-19T12:14:18;99764.72;;;28.06;58.20
27805;BME280;15183;51.350;11.102;2022-08-19T12:16:46;99752.03;;;27.98;57.84
27805;BME280;15183;51.350;11.102;2022-08-19T12:19:12;99729.72;;;27.80;57.52
27805;BME280;15183;51.350;11.102;2022-08-19T12:21:39;99726.47;;;27.74;57.27
27805;BME280;15183;51.350;11.102;2022-08-19T12:24:06;99752.63;;;27.91;57.60
27805;BME280;15183;51.350;11.102;2022-08-19T12:26:34;99753.34;;;27.88;57.36
27805;BME280;15183;51.350;11.102;2022-08-19T12:29:00;99755.69;;;27.90;57.03
27805;BME280;15183;51.350;11.102;2022-08-19T12:31:28;99752.28;;;27.93;56.40
27805;BME280;15183;51.350;11.102;2022-08-19T12:33:55;99748.41;;;27.94;56.84
27805;BME280;15183;51.350;11.102;2022-08-19T12:36:23;99715.69;;;27.78;56.62
27805;BME280;15183;51.350;11.102;2022-08-19T12:38:51;99750.19;;;28.02;56.35
27805;BME280;15183;51.350;11.102;2022-08-19T12:41:18;99736.34;;;28.07;56.01
27805;BME280;15183;51.350;11.102;2022-08-19T12:43:45;99724.31;;;28.08;55.97
27805;BME280;15183;51.350;11.102;2022-08-19T12:46:12;99731.25;;;28.34;55.35
27805;BME280;15183;51.350;11.102;2022-08-19T12:48:39;99720.44;;;28.38;55.62
27805;BME280;15183;51.350;11.102;2022-08-19T12:51:12;99729.53;;;28.58;55.13
27805;BME280;15183;51.350;11.102;2022-08-19T12:53:40;99710.19;;;28.63;55.20
27805;BME280;15183;51.350;11.102;2022-08-19T12:56:09;99708.69;;;28.66;54.63
27805;BME280;15183;51.350;11.102;2022-08-19T12:58:36;99704.91;;;28.70;55.29
27805;BME280;15183;51.350;11.102;2022-08-19T13:01:09;99682.03;;;28.59;54.67
27805;BME280;15183;51.350;11.102;2022-08-19T13:03:37;99712.13;;;28.79;54.39
27805;BME280;15183;51.350;11.102;2022-08-19T13:06:03;99707.78;;;28.78;54.33
27805;BME280;15183;51.350;11.102;2022-08-19T13:08:30;99702.13;;;28.83;53.46
27805;BME280;15183;51.350;11.102;2022-08-19T13:10:56;99705.19;;;28.81;54.15
27805;BME280;15183;51.350;11.102;2022-08-19T13:13:24;99701.91;;;28.92;53.69
27805;BME280;15183;51.350;11.102;2022-08-19T13:15:52;99699.44;;;29.02;53.71
27805;BME280;15183;51.350;11.102;2022-08-19T13:18:19;99696.41;;;29.24;53.48